Latest Weather Observations for Batchelor

IDD60901

Issued at 6:21 pm CST Wednesday 19 September 2018 (issued every 10 minutes, with the page automatically refreshed every 10 minutes)

About weather observations | Map of Darwin area stations | Latest observations for Darwin area | Other Formats
Station Details ID: 014272 Name: BATCHELOR AIRPORT Lat: -13.05 Lon: 131.03 Height: 104.0 m
Data from the previous 72 hours. | See also: Recent months at Batchelor
Date/Time
CST
Temp
°C
App
Temp
°C
Dew
Point
°C
Rel
Hum
%
Delta-T
°C
Wind Press
QNH
hPa
Press
MSL
hPa
Rain since
9am
mm
Dir  Spd
km/h
Gust
km/h
Spd
kts
Gust
kts
19/06:00pm 34.9 32.3 6.2 17 15.7 ESE 9 15 5 8 1008.1 1007.4 0.0
19/05:30pm 35.6 33.3 5.9 16 16.3 SE 7 11 4 6 1007.7 1007.0 0.0
19/05:00pm 35.9 31.6 5.2 15 16.6 ESE 17 28 9 15 1007.6 1006.9 0.0
19/04:30pm 36.4 34.1 5.6 15 16.9 ESE 7 15 4 8 1007.6 1006.9 0.0
19/04:00pm 36.1 31.3 4.4 14 17.0 ESE 19 28 10 15 1007.7 1007.0 0.0
19/03:30pm 36.4 33.5 4.6 14 17.1 SE 9 20 5 11 1007.9 1007.2 0.0
19/03:00pm 36.8 33.6 6.9 16 16.7 E 13 20 7 11 1008.3 1007.6 0.0
19/02:30pm 35.5 34.0 9.1 20 15.2 E 7 15 4 8 1008.8 1008.1 0.0
19/02:00pm 35.2 33.6 10.3 22 14.5 ESE 9 28 5 15 1009.5 1008.8 0.0
19/01:30pm 34.4 33.5 11.5 25 13.6 NNE 7 13 4 7 1010.1 1009.4 0.0
19/01:00pm 33.5 32.0 11.9 27 12.8 N 11 17 6 9 1010.8 1010.1 0.0
19/12:30pm 33.8 32.9 12.7 27 12.7 SSE 9 15 5 8 1011.4 1010.8 0.0
19/12:00pm 33.5 33.0 12.5 28 12.6 ENE 7 17 4 9 1012.0 1011.4 0.0
19/11:30am 32.1 32.8 16.0 38 10.1 N 7 9 4 5 1012.8 1012.1 0.0
19/11:00am 31.4 32.6 16.9 41 9.2 NNW 6 9 3 5 1013.5 1012.8 0.0
19/10:30am 30.4 32.1 18.5 49 7.7 SW 7 13 4 7 1014.0 1013.3 0.0
19/10:00am 29.9 32.1 19.3 53 6.9 WSW 6 11 3 6 1014.1 1013.4 0.0
19/09:30am 28.7 30.9 19.6 58 6.0 WSW 7 13 4 7 1014.3 1013.6 0.0
19/09:00am 27.8 30.7 21.1 67 4.5 W 7 13 4 7 1014.2 1013.5 0.0
19/08:30am 26.1 29.3 21.3 75 3.2 WSW 6 9 3 5 1013.9 1013.2 0.0
19/08:00am 24.1 27.9 21.0 83 2.0 N 2 2 1 1 1013.3 1012.6 0.0
19/07:30am 22.1 26.5 21.3 95 0.5 CALM 0 0 0 0 1013.0 1012.3 0.0
19/07:00am 20.5 24.1 19.8 96 0.4 CALM 0 0 0 0 1012.5 1011.9 0.0
19/06:30am 20.4 24.0 19.7 96 0.4 CALM 0 0 0 0 1012.3 1011.7 0.0
19/06:00am 20.8 24.5 20.0 95 0.5 CALM 0 0 0 0 1011.8 1011.2 0.0
19/05:30am 20.8 24.5 20.0 95 0.5 CALM 0 0 0 0 1011.4 1010.8 0.0
19/05:00am 20.3 23.4 18.6 90 1.1 CALM 0 0 0 0 1011.2 1010.5 0.0
19/04:30am 20.9 23.9 18.5 86 1.5 CALM 0 0 0 0 1011.1 1010.4 0.0
19/04:00am 22.0 25.1 20.3 90 1.1 N 4 4 2 2 1011.0 1010.3 0.0
19/03:30am 22.6 25.7 20.3 87 1.5 N 4 6 2 3 1011.1 1010.4 0.0
19/03:00am 22.2 24.9 18.6 80 2.3 N 2 6 1 3 1011.3 1010.7 0.0
19/02:30am 23.0 26.1 19.6 81 2.2 N 2 4 1 2 1011.8 1011.2 0.0
19/02:00am 23.9 27.1 20.4 81 2.3 N 4 6 2 3 1012.1 1011.5 0.0
19/01:30am 23.9 27.3 20.2 80 2.4 N 2 4 1 2 1012.4 1011.8 0.0
19/01:00am 24.4 27.3 20.7 80 2.4 N 6 7 3 4 1012.6 1012.0 0.0
19/12:30am 24.5 27.5 20.8 80 2.4 NNE 6 9 3 5 1012.9 1012.2 0.0
19/12:00am 24.1 27.4 20.0 78 2.7 N 2 2 1 1 1012.9 1012.2 0.0
 
Date/Time
CST
Temp
°C
App
Temp
°C
Dew
Point
°C
Rel
Hum
%
Delta-T
°C
Wind Press
QNH
hPa
Press
MSL
hPa
Rain since
9am
mm
Dir  Spd
km/h
Gust
km/h
Spd
kts
Gust
kts
18/11:30pm 24.5 27.7 19.8 75 3.0 N 2 4 1 2 1012.9 1012.2 0.0
18/11:00pm 24.9 28.1 20.4 76 2.9 N 4 4 2 2 1012.9 1012.2 0.0
18/10:30pm 25.5 28.3 20.5 74 3.3 WNW 6 9 3 5 1012.6 1012.0 0.0
18/10:00pm 25.7 28.5 20.5 73 3.4 WNW 6 9 3 5 1012.8 1012.1 0.0
18/09:30pm 26.0 28.4 20.8 73 3.4 WNW 9 13 5 7 1012.4 1011.8 0.0
18/09:00pm 26.5 29.4 21.0 72 3.6 W 7 15 4 8 1012.1 1011.5 0.0
18/08:30pm 27.3 28.7 21.1 69 4.1 W 15 26 8 14 1011.5 1010.9 0.0
18/08:00pm 27.8 30.0 21.1 67 4.5 W 11 20 6 11 1011.0 1010.3 0.0
18/07:30pm 28.3 29.7 19.5 59 5.7 WNW 11 17 6 9 1010.6 1009.9 0.0
18/07:00pm 28.9 29.4 19.2 55 6.3 WNW 15 22 8 12 1010.1 1009.4 0.0
18/06:30pm 30.0 30.2 19.4 53 6.9 WNW 17 26 9 14 1009.5 1008.8 0.0
18/06:23pm 30.4 30.8 19.1 50 7.4 WNW 15 26 8 14 1009.4 1008.7 0.0
18/06:00pm 35.5 32.7 1.8 12 17.3 ESE 6 9 3 5 1009.0 1008.3 0.0
18/05:30pm 36.2 33.0 -0.2 10 18.2 SSW 6 13 3 7 1008.5 1007.8 0.0
18/05:00pm 36.5 33.4 0.0 10 18.3 SSW 6 13 3 7 1008.3 1007.6 0.0
18/04:30pm 37.2 32.8 0.5 10 18.6 SE 13 20 7 11 1008.2 1007.5 0.0
18/04:00pm 36.9 33.3 0.3 10 18.5 SE 9 19 5 10 1008.2 1007.5 0.0
18/03:30pm 37.4 32.3 0.7 10 18.7 ESE 17 30 9 16 1008.5 1007.8 0.0
18/03:00pm 37.3 32.8 1.9 11 18.4 E 15 24 8 13 1009.0 1008.3 0.0
18/02:30pm 36.7 32.3 2.7 12 17.8 SE 15 26 8 14 1009.6 1008.9 0.0
18/02:00pm 36.9 32.4 4.0 13 17.6 E 17 26 9 14 1010.0 1009.3 0.0
18/01:30pm 35.5 33.0 6.7 17 15.9 NNE 9 19 5 10 1010.8 1010.1 0.0
18/01:00pm 35.5 31.5 4.9 15 16.5 ENE 15 22 8 12 1011.5 1010.9 0.0
18/12:30pm 35.0 32.4 6.3 17 15.7 ENE 9 24 5 13 1012.1 1011.5 0.0
18/12:00pm 33.5 31.3 10.8 25 13.3 ESE 13 19 7 10 1013.0 1012.3 0.0
18/11:30am 32.3 31.0 12.5 30 11.8 NE 11 26 6 14 1013.7 1013.0 0.0
18/11:00am 32.5 31.4 13.2 31 11.6 NE 11 20 6 11 1014.2 1013.5 0.0
18/10:30am 31.2 31.9 16.0 40 9.5 NNE 7 15 4 8 1014.7 1014.0 0.0
18/10:00am 29.5 31.3 18.3 51 7.2 N 6 11 3 6 1014.9 1014.2 0.0
18/09:30am 28.7 30.9 19.1 56 6.2 N 6 11 3 6 1015.0 1014.3 0.0
18/09:00am 27.8 31.3 21.1 67 4.5 NNW 4 9 2 5 1015.1 1014.4 0.0
18/08:30am 26.5 30.6 21.5 74 3.3 NW 2 4 1 2 1015.0 1014.3 0.0
18/08:00am 25.0 29.2 21.7 82 2.2 NW 2 4 1 2 1014.6 1013.9 0.0
18/07:30am 23.0 27.5 22.3 96 0.5 NW 2 4 1 2 1014.2 1013.5 0.0
18/07:00am 20.6 24.2 19.8 95 0.5 CALM 0 0 0 0 1013.8 1013.1 0.0
18/06:30am 20.2 23.5 19.0 93 0.8 CALM 0 0 0 0 1013.5 1012.8 0.0
18/06:00am 20.7 24.4 20.0 96 0.4 CALM 0 0 0 0 1013.2 1012.5 0.0
18/05:30am 20.3 23.3 18.4 89 1.2 CALM 0 2 0 1 1012.9 1012.2 0.0
18/05:00am 20.7 23.8 19.5 93 0.8 NW 2 4 1 2 1012.5 1011.9 0.0
18/04:30am 20.7 23.8 18.6 88 1.3 CALM 0 0 0 0 1012.2 1011.6 0.0
18/04:00am 21.3 25.1 20.1 93 0.8 CALM 0 0 0 0 1012.1 1011.5 0.0
18/03:30am 21.1 24.2 18.7 86 1.5 CALM 0 0 0 0 1012.1 1011.5 0.0
18/03:00am 21.9 25.9 20.5 92 0.9 CALM 0 0 0 0 1012.3 1011.7 0.0
18/02:30am 22.0 25.9 20.3 90 1.1 CALM 0 0 0 0 1012.6 1012.0 0.0
18/02:00am 21.9 25.4 19.6 87 1.5 CALM 0 0 0 0 1013.0 1012.3 0.0
18/01:30am 22.2 25.6 19.4 84 1.8 CALM 0 0 0 0 1013.3 1012.6 0.0
18/01:00am 22.6 26.4 20.1 86 1.6 CALM 0 0 0 0 1013.5 1012.8 0.0
18/12:30am 22.8 26.4 19.8 83 1.9 CALM 0 0 0 0 1013.5 1012.8 0.0
18/12:00am 23.1 26.6 19.5 80 2.3 CALM 0 0 0 0 1013.6 1012.9 0.0
 
Date/Time
CST
Temp
°C
App
Temp
°C
Dew
Point
°C
Rel
Hum
%
Delta-T
°C
Wind Press
QNH
hPa
Press
MSL
hPa
Rain since
9am
mm
Dir  Spd
km/h
Gust
km/h
Spd
kts
Gust
kts
17/11:30pm 23.4 26.9 19.5 79 2.5 CALM 0 0 0 0 1013.5 1012.8 0.0
17/11:00pm 24.6 27.9 19.9 75 3.0 NW 2 2 1 1 1013.2 1012.5 0.0
17/10:30pm 25.1 28.9 20.1 74 3.3 CALM 0 4 0 2 1013.2 1012.5 0.0
17/10:00pm 25.6 28.5 19.9 70 3.7 NW 4 6 2 3 1013.1 1012.4 0.0
17/09:30pm 26.5 29.2 20.3 68 4.1 NW 6 9 3 5 1012.9 1012.2 0.0
17/09:00pm 26.9 29.4 20.3 67 4.3 NW 7 11 4 6 1012.4 1011.8 0.0
17/08:30pm 27.4 29.0 20.0 64 4.9 WNW 11 19 6 10 1012.0 1011.4 0.0
17/08:00pm 28.1 29.9 19.6 60 5.5 WNW 9 15 5 8 1011.6 1011.0 0.0
17/07:30pm 28.5 29.7 20.0 60 5.6 WNW 13 22 7 12 1011.0 1010.3 0.0
17/07:00pm 29.6 30.7 19.6 55 6.6 WNW 13 26 7 14 1010.4 1009.7 0.0
17/06:30pm 32.5 30.9 4.3 17 14.8 E 2 4 1 2 1009.7 1009.0 0.0
17/06:00pm 35.1 32.0 0.2 11 17.4 SE 6 9 3 5 1009.3 1008.6 0.0
17/05:30pm 36.0 31.5 -0.4 10 18.1 SE 13 20 7 11 1009.0 1008.3 0.0
17/05:00pm 36.5 32.2 -1.4 9 18.6 ESE 11 17 6 9 1008.7 1008.0 0.0
17/04:30pm 36.7 31.7 -1.3 9 18.7 E 15 20 8 11 1008.7 1008.0 0.0
17/04:00pm 36.7 32.1 -1.3 9 18.7 ESE 13 22 7 12 1008.9 1008.2 0.0
17/03:30pm 37.1 31.9 0.4 10 18.6 ESE 17 28 9 15 1009.1 1008.4 0.0
17/03:00pm 36.5 31.1 1.3 11 18.0 E 19 33 10 18 1009.4 1008.7 0.0
17/02:30pm 35.9 31.4 4.2 14 16.9 E 17 32 9 17 1009.8 1009.1 0.0
17/02:00pm 36.6 32.2 4.8 14 17.2 ESE 17 32 9 17 1010.4 1009.7 0.0
17/01:30pm 35.9 31.8 6.2 16 16.3 ENE 17 28 9 15 1010.9 1010.2 0.0
17/01:00pm 35.7 31.4 6.9 17 16.0 ESE 19 28 10 15 1011.4 1010.8 0.0
17/12:30pm 34.5 30.3 7.5 19 15.1 ESE 19 28 10 15 1012.1 1011.5 0.0
17/12:00pm 34.1 31.5 10.7 24 13.7 ESE 15 32 8 17 1012.9 1012.2 0.0
17/11:30am 33.4 30.8 11.9 27 12.8 E 17 28 9 15 1013.5 1012.8 0.0
17/11:00am 32.5 30.5 12.7 30 11.9 ESE 15 26 8 14 1014.0 1013.3 0.0
17/10:30am 31.6 29.9 14.7 36 10.4 SE 17 26 9 14 1014.3 1013.6 0.0
17/10:00am 30.8 30.6 16.8 43 8.9 ESE 13 22 7 12 1014.4 1013.7 0.0
17/09:30am 29.7 30.6 18.5 51 7.2 ESE 11 20 6 11 1014.4 1013.7 0.0
17/09:00am 28.0 29.9 19.8 61 5.4 S 9 17 5 9 1014.4 1013.7 0.0
17/08:30am 27.3 29.8 21.1 69 4.1 SSE 9 15 5 8 1014.2 1013.5 0.0
17/08:00am 25.4 28.5 21.5 79 2.6 SSE 7 9 4 5 1013.8 1013.1 0.0
17/07:30am 23.3 27.3 21.4 89 1.3 NNW 2 4 1 2 1013.5 1012.8 0.0
17/07:00am 21.4 25.4 20.6 95 0.5 CALM 0 0 0 0 1013.2 1012.5 0.0
17/06:30am 20.8 24.0 18.9 89 1.2 CALM 0 0 0 0 1012.8 1012.1 0.0
17/06:00am 21.4 25.1 19.9 91 1.0 CALM 0 0 0 0 1012.4 1011.8 0.0
17/05:30am 21.6 25.2 19.7 89 1.2 CALM 0 0 0 0 1012.1 1011.5 0.0
17/05:00am 21.6 25.0 19.3 87 1.5 CALM 0 0 0 0 1011.9 1011.3 0.0
17/04:30am 21.9 25.4 19.6 87 1.5 CALM 0 0 0 0 1011.7 1011.1 0.0
17/04:00am 21.9 25.4 19.5 86 1.5 CALM 0 0 0 0 1011.6 1011.0 0.0
17/03:30am 22.0 25.0 18.4 80 2.3 CALM 0 0 0 0 1011.5 1010.9 0.0
17/03:00am 22.4 25.6 18.8 80 2.3 CALM 0 0 0 0 1011.7 1011.1 0.0
17/02:30am 22.9 26.3 19.3 80 2.3 CALM 0 0 0 0 1011.8 1011.2 0.0
17/02:00am 23.4 26.9 19.5 79 2.5 CALM 0 0 0 0 1012.0 1011.4 0.0
17/01:30am 23.5 26.8 19.0 76 2.9 CALM 0 0 0 0 1012.2 1011.6 0.0
17/01:00am 24.0 27.6 19.7 77 2.8 CALM 0 0 0 0 1012.4 1011.8 0.0
17/12:30am 24.2 27.5 19.1 73 3.3 CALM 0 0 0 0 1013.0 1012.3 0.0
17/12:00am 25.1 28.1 18.5 67 4.2 CALM 0 0 0 0 1013.3 1012.6 0.0
 
Date/Time
CST
Temp
°C
App
Temp
°C
Dew
Point
°C
Rel
Hum
%
Delta-T
°C
Wind Press
QNH
hPa
Press
MSL
hPa
Rain since
9am
mm
Dir  Spd
km/h
Gust
km/h
Spd
kts
Gust
kts
16/11:30pm 25.7 29.1 19.3 67 4.1 CALM 0 0 0 0 1013.5 1012.8 0.0
16/11:00pm 25.9 28.4 19.1 66 4.4 NNW 4 4 2 2 1013.6 1012.9 0.0
16/10:30pm 26.3 29.0 19.4 66 4.5 NW 4 6 2 3 1013.3 1012.6 0.0
16/10:00pm 26.8 29.0 19.2 63 4.9 WNW 6 7 3 4 1013.2 1012.5 0.0
16/09:30pm 27.1 29.1 17.8 56 5.9 NW 4 6 2 3 1013.1 1012.4 0.0
16/09:00pm 27.3 29.2 18.6 59 5.6 NNW 6 7 3 4 1012.5 1011.9 0.0
16/08:30pm 27.9 29.9 19.1 58 5.7 WNW 7 13 4 7 1012.0 1011.4 0.0
16/08:00pm 28.4 29.8 19.6 59 5.8 WNW 11 15 6 8 1011.3 1010.7 0.0
16/07:30pm 29.0 30.4 18.7 53 6.7 NW 9 17 5 9 1010.8 1010.1 0.0
16/07:00pm 29.8 30.3 20.1 56 6.4 NW 17 24 9 13 1010.3 1009.6 0.0
16/06:30pm 31.3 32.0 19.6 49 7.7 WNW 15 26 8 14 1009.9 1009.2 0.0

Latest Capital City Observations: Canberra | Sydney | Melbourne | Brisbane | Adelaide | Perth | Hobart | Darwin

Other Formats:

Comma delimited format used in spreadsheet applications
http://www.bom.gov.au/fwo/IDD60901/IDD60901.94125.axf

JavaScript Object Notation format (JSON) in row-major order
http://www.bom.gov.au/fwo/IDD60901/IDD60901.94125.json